Time;durP1;ratioP1;P1;durP2;ratioP2;P2;SDS_P1;SDS_P2;PMS_P1;PMS_P2;Temp;Humidity;BMP_temperature;BMP_pressure;BME280_temperature;BME280_humidity;BME280_pressure;Samples;Min_cycle;Max_cycle;Signal;HPM_P1;HPM_P2
2021/06/24 00:00:27;;;;;;;22.17;16.25;;;28.00;61.30;;;;;;6203950;28;85717;-67
2021/06/24 00:03:28;;;;;;;24.05;16.80;;;28.00;61.30;;;;;;6206601;28;83248;-67
2021/06/24 00:06:28;;;;;;;22.25;16.30;;;28.10;61.40;;;;;;6204274;27;83028;-67
2021/06/24 00:09:29;;;;;;;28.65;17.38;;;28.10;61.50;;;;;;6205664;28;83269;-67
2021/06/24 00:12:29;;;;;;;27.15;17.75;;;28.10;61.60;;;;;;6206841;27;83064;-67
2021/06/24 00:15:30;;;;;;;26.52;16.98;;;28.10;61.50;;;;;;6213746;28;83898;-67
2021/06/24 00:18:30;;;;;;;29.10;19.00;;;28.00;61.40;;;;;;6205484;28;83514;-68
2021/06/24 00:21:31;;;;;;;25.30;17.42;;;28.00;61.30;;;;;;6213193;28;84044;-67
2021/06/24 00:24:31;;;;;;;24.55;16.52;;;28.00;61.50;;;;;;6205515;28;83238;-68
2021/06/24 00:27:32;;;;;;;25.08;16.67;;;28.00;61.80;;;;;;6214409;28;83211;-68
2021/06/24 00:30:34;;;;;;;24.20;16.90;;;28.00;61.80;;;;;;6198267;28;83984;-68
2021/06/24 00:33:35;;;;;;;25.60;17.92;;;28.00;61.80;;;;;;6207822;28;82982;-67
2021/06/24 00:36:35;;;;;;;23.83;17.77;;;28.00;61.70;;;;;;6207425;28;85561;-67
2021/06/24 00:39:36;;;;;;;24.83;17.15;;;28.00;61.70;;;;;;6208083;28;83154;-67
2021/06/24 00:42:37;;;;;;;27.38;17.63;;;28.00;61.70;;;;;;6209183;28;82884;-67
2021/06/24 00:45:37;;;;;;;26.63;17.92;;;28.00;62.00;;;;;;6201267;28;85907;-67
2021/06/24 00:48:38;;;;;;;27.20;18.50;;;28.00;62.00;;;;;;6213434;28;85202;-67
2021/06/24 00:51:39;;;;;;;25.50;19.38;;;28.00;61.80;;;;;;6206819;28;85802;-67
2021/06/24 00:54:40;;;;;;;36.97;19.75;;;28.00;61.90;;;;;;6210076;27;83248;-68
2021/06/24 00:57:41;;;;;;;27.77;18.60;;;28.00;61.80;;;;;;6208331;27;83070;-68
2021/06/24 01:00:41;;;;;;;29.95;19.67;;;28.00;61.90;;;;;;6206824;27;83275;-67
2021/06/24 01:03:42;;;;;;;29.48;19.52;;;27.90;61.90;;;;;;6207420;27;83443;-69
2021/06/24 01:06:43;;;;;;;26.52;18.10;;;28.00;61.90;;;;;;6201600;28;86084;-68
2021/06/24 01:09:43;;;;;;;25.40;18.35;;;27.90;61.80;;;;;;6210370;28;84340;-67
2021/06/24 01:12:44;;;;;;;27.05;18.83;;;27.90;61.90;;;;;;6209954;28;83208;-67
2021/06/24 01:15:45;;;;;;;25.38;17.35;;;27.90;61.80;;;;;;6206615;28;85683;-67
2021/06/24 01:18:48;;;;;;;27.88;18.15;;;27.90;61.90;;;;;;6206388;28;85598;-67
2021/06/24 01:21:49;;;;;;;24.55;18.05;;;27.90;62.00;;;;;;6207014;28;85299;-67
2021/06/24 01:24:50;;;;;;;27.88;18.23;;;27.90;62.40;;;;;;6204041;28;85618;-66
2021/06/24 01:27:51;;;;;;;25.38;18.50;;;27.90;61.90;;;;;;6206865;28;85856;-66
2021/06/24 01:30:51;;;;;;;27.02;17.55;;;27.90;61.80;;;;;;6207889;28;85427;-67
2021/06/24 01:33:53;;;;;;;25.52;18.35;;;27.90;61.70;;;;;;6206420;28;85777;-68
2021/06/24 01:36:53;;;;;;;28.70;19.17;;;27.90;61.60;;;;;;6207043;28;85960;-67
2021/06/24 01:39:54;;;;;;;29.80;19.23;;;27.90;61.70;;;;;;6209120;28;85228;-68
2021/06/24 01:42:55;;;;;;;28.10;19.92;;;27.90;61.60;;;;;;6206073;28;84260;-67
2021/06/24 01:45:56;;;;;;;27.63;18.30;;;27.90;61.70;;;;;;6207818;28;84406;-66
2021/06/24 01:48:56;;;;;;;29.60;18.08;;;27.90;61.70;;;;;;6206888;28;83489;-66
2021/06/24 01:51:57;;;;;;;27.63;19.60;;;27.90;61.60;;;;;;6205018;28;86248;-66
2021/06/24 01:54:58;;;;;;;29.42;20.77;;;27.90;61.60;;;;;;6207298;28;83341;-66
2021/06/24 01:58:03;;;;;;;;;;;27.90;61.70;;;;;;6215462;28;87231;-66
2021/06/24 02:01:43;;;;;;;34.13;19.27;;;27.90;62.00;;;;;;6212980;28;83860;-66
2021/06/24 02:04:54;;;;;;;29.02;19.60;;;27.90;61.70;;;;;;6206172;28;83234;-67
2021/06/24 02:08:05;;;;;;;28.13;19.63;;;27.90;61.60;;;;;;6208240;28;82946;-68
2021/06/24 02:11:15;;;;;;;30.38;19.55;;;27.90;61.80;;;;;;6208570;28;84130;-69
2021/06/24 02:14:19;;;;;;;27.83;18.08;;;27.90;61.70;;;;;;6209655;28;85737;-68
2021/06/24 02:17:19;;;;;;;24.48;18.15;;;27.90;62.00;;;;;;6206796;28;84321;-68
2021/06/24 02:20:21;;;;;;;29.75;18.77;;;27.90;61.90;;;;;;6205552;28;84368;-68
2021/06/24 02:23:34;;;;;;;26.02;19.00;;;27.90;61.70;;;;;;6207335;28;85570;-68
2021/06/24 02:26:53;;;;;;;30.48;17.70;;;27.90;61.60;;;;;;6207994;28;83498;-68
2021/06/24 02:30:01;;;;;;;25.88;17.30;;;27.90;62.00;;;;;;6204415;28;85327;-69
2021/06/24 02:33:05;;;;;;;28.35;18.23;;;27.90;61.70;;;;;;6211609;28;85365;-67
2021/06/24 02:36:06;;;;;;;23.60;17.10;;;27.90;61.80;;;;;;6204387;28;86140;-68
2021/06/24 02:39:11;;;;;;;27.13;16.40;;;27.80;61.80;;;;;;6213427;28;86309;-68
2021/06/24 02:42:14;;;;;;;27.30;19.88;;;27.80;61.50;;;;;;6205659;28;83321;-68
2021/06/24 02:45:16;;;;;;;28.13;18.75;;;27.80;61.70;;;;;;6204103;28;85472;-67
2021/06/24 02:48:20;;;;;;;29.10;19.42;;;27.80;61.90;;;;;;6201509;28;84106;-68
2021/06/24 02:51:21;;;;;;;31.17;19.70;;;27.80;61.50;;;;;;6205247;28;86006;-68
2021/06/24 02:54:39;;;;;;;30.17;20.73;;;27.80;61.40;;;;;;6205344;28;85424;-67
2021/06/24 02:57:40;;;;;;;29.13;20.48;;;27.80;61.40;;;;;;6205083;28;86320;-67
2021/06/24 03:00:50;;;;;;;33.88;21.08;;;27.80;61.60;;;;;;6200286;28;83242;-67
2021/06/24 03:03:59;;;;;;;29.65;20.35;;;27.80;61.40;;;;;;6206567;28;84523;-67
2021/06/24 03:07:01;;;;;;;27.45;19.55;;;27.80;61.60;;;;;;6205216;28;85639;-67
2021/06/24 03:10:07;;;;;;;28.50;19.58;;;27.70;61.40;;;;;;6208012;28;88744;-67
2021/06/24 03:13:15;;;;;;;30.77;19.92;;;27.80;61.60;;;;;;6205672;28;83581;-67
2021/06/24 03:16:15;;;;;;;28.25;18.80;;;27.80;61.70;;;;;;6205132;28;83270;-67
2021/06/24 03:19:16;;;;;;;31.70;20.33;;;27.80;61.50;;;;;;6206037;28;84658;-67
2021/06/24 03:22:28;;;;;;;27.65;21.00;;;27.70;61.50;;;;;;6204987;28;85682;-67
2021/06/24 03:25:28;;;;;;;29.58;20.23;;;27.80;61.50;;;;;;6206193;28;83215;-68
2021/06/24 03:28:29;;;;;;;27.08;19.02;;;27.70;61.50;;;;;;6205621;28;85818;-67
2021/06/24 03:31:48;;;;;;;30.55;19.58;;;27.80;61.60;;;;;;6204606;28;83008;-68
2021/06/24 03:34:52;;;;;;;31.35;19.67;;;27.80;61.70;;;;;;6202313;28;85773;-68
2021/06/24 03:37:55;;;;;;;32.60;20.92;;;27.80;61.80;;;;;;6201814;27;84047;-68
2021/06/24 03:40:56;;;;;;;30.58;19.70;;;27.80;62.10;;;;;;6204388;28;85990;-67
2021/06/24 03:43:58;;;;;;;26.27;19.98;;;27.80;62.10;;;;;;6204131;28;86013;-68
2021/06/24 03:46:59;;;;;;;33.55;20.42;;;27.70;61.70;;;;;;6210954;28;82884;-67
2021/06/24 03:50:01;;;;;;;32.25;21.90;;;27.70;61.90;;;;;;6203892;28;85507;-67
2021/06/24 03:53:04;;;;;;;35.58;23.83;;;27.70;61.50;;;;;;6195445;28;82943;-67
2021/06/24 03:56:04;;;;;;;29.25;21.10;;;27.60;61.80;;;;;;6205676;28;83866;-69
2021/06/24 03:59:15;;;;;;;30.85;22.75;;;27.60;62.00;;;;;;6202455;28;83342;-68
2021/06/24 04:02:18;;;;;;;33.08;21.17;;;27.60;61.90;;;;;;6203124;28;86136;-69
2021/06/24 04:05:18;;;;;;;34.00;21.42;;;27.60;62.20;;;;;;6205229;27;83894;-68
2021/06/24 04:08:22;;;;;;;29.90;21.88;;;27.60;62.10;;;;;;6210554;28;90241;-68
2021/06/24 04:11:23;;;;;;;37.90;22.70;;;27.60;62.40;;;;;;6207395;28;85693;-69
2021/06/24 04:14:31;;;;;;;28.45;20.05;;;27.60;62.30;;;;;;6211601;28;85989;-70
2021/06/24 04:17:39;;;;;;;30.73;20.08;;;27.70;62.80;;;;;;6216607;28;85973;-69
2021/06/24 04:20:41;;;;;;;29.95;21.30;;;27.70;62.50;;;;;;6211246;28;85682;-69
2021/06/24 04:23:42;;;;;;;31.65;22.35;;;27.70;62.50;;;;;;6209114;28;85362;-69
2021/06/24 04:26:46;;;;;;;39.13;24.45;;;27.70;63.00;;;;;;6212082;28;85950;-69
2021/06/24 04:29:51;;;;;;;40.92;24.77;;;27.80;63.40;;;;;;6208779;28;84131;-69
2021/06/24 04:32:52;;;;;;;34.90;22.98;;;27.70;63.00;;;;;;6214662;28;85265;-70
2021/06/24 04:36:00;;;;;;;34.42;24.10;;;27.70;63.10;;;;;;6210573;28;86153;-69
2021/06/24 04:39:01;;;;;;;36.45;23.83;;;27.80;63.10;;;;;;6208387;28;85629;-69
2021/06/24 04:42:03;;;;;;;33.65;22.15;;;27.80;62.90;;;;;;6216930;28;85535;-70
2021/06/24 04:45:06;;;;;;;37.75;22.55;;;27.80;62.90;;;;;;6208856;28;84192;-69
2021/06/24 04:48:08;;;;;;;38.05;24.08;;;27.90;62.80;;;;;;6216848;28;84146;-69
2021/06/24 04:51:11;;;;;;;33.05;23.40;;;27.90;63.70;;;;;;6219424;28;83372;-70
2021/06/24 04:54:12;;;;;;;38.70;24.23;;;27.90;63.50;;;;;;6212683;28;83479;-70
2021/06/24 04:57:15;;;;;;;37.17;24.60;;;27.90;63.50;;;;;;6209801;28;83245;-69
2021/06/24 05:00:43;;;;;;;36.75;24.65;;;27.90;63.50;;;;;;6209422;28;85050;-70
2021/06/24 05:04:02;;;;;;;37.13;24.42;;;27.90;63.60;;;;;;6211246;28;84662;-70
2021/06/24 05:07:07;;;;;;;33.42;24.25;;;27.90;63.70;;;;;;6211089;28;90696;-67
2021/06/24 05:10:08;;;;;;;35.80;25.30;;;27.90;63.40;;;;;;6213586;28;84445;-67
2021/06/24 05:13:08;;;;;;;32.88;25.33;;;27.90;63.40;;;;;;6217906;28;83956;-67
2021/06/24 05:16:09;;;;;;;37.08;26.08;;;27.90;62.50;;;;;;6222156;28;83478;-67
2021/06/24 05:19:09;;;;;;;38.40;25.80;;;27.90;62.60;;;;;;6208303;28;83129;-68
2021/06/24 05:22:10;;;;;;;41.17;27.08;;;27.90;62.30;;;;;;6215875;28;83388;-68
2021/06/24 05:25:10;;;;;;;41.15;26.90;;;27.90;62.40;;;;;;6208645;28;83769;-68
2021/06/24 05:28:11;;;;;;;36.22;25.63;;;28.00;62.60;;;;;;6207799;28;83628;-67
2021/06/24 05:31:11;;;;;;;38.75;25.90;;;27.90;62.60;;;;;;6207288;28;87068;-68
2021/06/24 05:34:12;;;;;;;35.38;27.33;;;28.00;62.60;;;;;;6204603;28;83087;-68
2021/06/24 05:37:13;;;;;;;44.00;28.60;;;28.00;62.80;;;;;;6207418;28;83990;-69
2021/06/24 05:40:13;;;;;;;42.35;28.80;;;28.00;62.30;;;;;;6207889;27;86869;-70
2021/06/24 05:43:14;;;;;;;40.90;27.98;;;28.00;62.20;;;;;;6208366;28;83193;-68
2021/06/24 05:46:14;;;;;;;38.53;27.77;;;28.00;62.80;;;;;;6205659;28;83519;-72
2021/06/24 05:49:15;;;;;;;46.92;31.33;;;28.10;63.00;;;;;;6203388;28;83910;-69
2021/06/24 05:52:15;;;;;;;47.53;32.63;;;28.00;62.50;;;;;;6206027;27;83303;-68
2021/06/24 05:55:17;;;;;;;41.97;30.45;;;28.10;62.10;;;;;;6199757;28;85775;-69
2021/06/24 05:58:18;;;;;;;45.95;33.00;;;28.00;62.60;;;;;;6207115;28;83792;-69
2021/06/24 06:01:20;;;;;;;50.08;32.72;;;28.00;62.40;;;;;;6206631;27;83082;-70
2021/06/24 06:04:21;;;;;;;51.17;32.33;;;28.00;62.80;;;;;;6206279;28;82982;-68
2021/06/24 06:07:21;;;;;;;45.88;31.38;;;28.00;62.70;;;;;;6207890;28;83932;-69
2021/06/24 06:10:22;;;;;;;47.28;31.55;;;28.00;63.00;;;;;;6203383;28;84055;-69
2021/06/24 06:13:22;;;;;;;47.53;32.45;;;28.00;62.80;;;;;;6203347;28;82816;-68
2021/06/24 06:16:23;;;;;;;46.08;32.92;;;28.00;62.70;;;;;;6208531;28;83383;-68
2021/06/24 06:19:23;;;;;;;47.75;32.95;;;28.10;63.40;;;;;;6206672;27;83379;-68
2021/06/24 06:22:24;;;;;;;53.55;34.42;;;28.00;64.20;;;;;;6206158;27;83006;-66
2021/06/24 06:25:24;;;;;;;48.38;33.80;;;28.00;64.20;;;;;;6208049;28;84063;-68
2021/06/24 06:28:25;;;;;;;50.83;32.05;;;28.10;64.60;;;;;;6201878;28;82997;-69
2021/06/24 06:31:25;;;;;;;47.13;32.90;;;28.00;64.40;;;;;;6205940;28;83779;-69
2021/06/24 06:34:26;;;;;;;48.35;33.40;;;28.10;64.40;;;;;;6205582;28;83414;-68
2021/06/24 06:37:26;;;;;;;51.80;34.92;;;28.10;64.70;;;;;;6198495;28;84117;-69
2021/06/24 06:40:27;;;;;;;50.72;33.30;;;28.10;63.70;;;;;;6201319;28;84303;-68
2021/06/24 06:43:27;;;;;;;47.10;33.22;;;28.10;64.90;;;;;;6197315;28;84343;-69
2021/06/24 06:46:28;;;;;;;48.95;31.58;;;28.00;65.30;;;;;;6205166;28;83273;-69
2021/06/24 06:49:28;;;;;;;43.45;30.42;;;28.00;65.80;;;;;;6202878;28;83227;-69
2021/06/24 06:52:29;;;;;;;46.22;32.13;;;28.00;65.60;;;;;;6199432;28;83598;-68
2021/06/24 06:55:29;;;;;;;44.30;28.63;;;28.10;66.00;;;;;;6205468;28;84046;-69
2021/06/24 06:58:30;;;;;;;44.13;30.58;;;28.20;65.80;;;;;;6204950;28;82981;-69
2021/06/24 07:01:30;;;;;;;47.75;33.17;;;28.30;65.40;;;;;;6203927;27;83569;-69
2021/06/24 07:04:31;;;;;;;45.70;31.15;;;28.20;65.60;;;;;;6203139;28;83360;-71
2021/06/24 07:07:31;;;;;;;61.45;37.42;;;28.30;65.40;;;;;;6206636;28;84081;-69
2021/06/24 07:10:32;;;;;;;53.55;34.17;;;28.30;64.70;;;;;;6207460;28;83300;-68
2021/06/24 07:13:33;;;;;;;50.20;33.85;;;28.30;64.80;;;;;;6202780;27;84024;-71
2021/06/24 07:16:33;;;;;;;53.20;35.08;;;28.40;64.90;;;;;;6206686;28;84734;-70
2021/06/24 07:19:34;;;;;;;53.78;36.40;;;28.30;65.50;;;;;;6204334;28;84739;-69
2021/06/24 07:22:34;;;;;;;55.90;39.72;;;28.30;65.40;;;;;;6198178;28;85071;-68
2021/06/24 07:25:35;;;;;;;61.08;40.42;;;28.30;65.20;;;;;;6200682;28;83068;-70
2021/06/24 07:28:35;;;;;;;64.30;38.55;;;28.30;65.50;;;;;;6199305;28;83715;-69
2021/06/24 07:31:36;;;;;;;55.47;38.58;;;28.30;65.70;;;;;;6197398;28;83605;-71
2021/06/24 07:34:36;;;;;;;60.83;39.22;;;28.30;65.40;;;;;;6204366;28;84891;-70
2021/06/24 07:37:37;;;;;;;61.55;37.67;;;28.20;65.30;;;;;;6202144;28;83479;-70
2021/06/24 07:40:37;;;;;;;59.10;35.70;;;28.20;65.70;;;;;;6200516;28;84287;-70
2021/06/24 07:43:38;;;;;;;51.00;35.38;;;28.30;65.70;;;;;;6199741;28;83285;-70
2021/06/24 07:46:38;;;;;;;57.60;36.75;;;28.30;65.40;;;;;;6200553;28;83112;-71
2021/06/24 07:49:39;;;;;;;57.03;39.28;;;28.30;65.00;;;;;;6204303;28;83142;-71
2021/06/24 07:52:39;;;;;;;65.75;39.67;;;28.30;65.50;;;;;;6197647;28;83477;-71
2021/06/24 07:55:40;;;;;;;61.20;37.67;;;28.30;65.30;;;;;;6201715;28;85999;-72
2021/06/24 07:58:41;;;;;;;52.47;36.35;;;28.30;65.30;;;;;;6200487;28;83076;-69
2021/06/24 08:01:42;;;;;;;54.63;37.15;;;28.30;67.70;;;;;;6203631;28;83507;-71
2021/06/24 08:04:42;;;;;;;49.17;35.38;;;28.30;67.30;;;;;;6203217;28;85830;-72
2021/06/24 08:07:45;;;;;;;58.67;37.70;;;28.40;67.00;;;;;;6199827;28;83714;-73
2021/06/24 08:10:45;;;;;;;49.42;34.90;;;28.40;66.60;;;;;;6206427;28;83723;-72
2021/06/24 08:13:46;;;;;;;50.70;35.38;;;28.40;66.70;;;;;;6204249;28;83423;-70
2021/06/24 08:16:46;;;;;;;57.88;36.92;;;28.40;66.10;;;;;;6200900;28;83905;-71
2021/06/24 08:19:47;;;;;;;57.08;37.88;;;28.40;66.00;;;;;;6203861;28;83183;-71
2021/06/24 08:22:48;;;;;;;50.00;36.30;;;28.40;66.00;;;;;;6213005;28;83168;-70
2021/06/24 08:25:48;;;;;;;52.53;36.00;;;28.40;65.60;;;;;;6205195;28;82943;-71
2021/06/24 08:28:49;;;;;;;56.70;36.42;;;28.40;65.50;;;;;;6202887;28;84094;-73
2021/06/24 08:31:49;;;;;;;53.60;36.80;;;28.40;65.70;;;;;;6201120;28;84033;-72
2021/06/24 08:34:50;;;;;;;54.67;36.63;;;28.40;65.60;;;;;;6196963;28;83109;-71
2021/06/24 08:37:50;;;;;;;53.67;36.13;;;28.40;65.60;;;;;;6201581;28;83487;-71
2021/06/24 08:40:51;;;;;;;53.10;36.17;;;28.40;65.10;;;;;;6202017;28;83716;-70
2021/06/24 08:43:51;;;;;;;47.97;33.83;;;28.40;65.00;;;;;;6203349;28;83024;-70
2021/06/24 08:46:52;;;;;;;50.60;34.65;;;28.40;64.70;;;;;;6205033;28;83267;-71
2021/06/24 08:49:52;;;;;;;44.90;33.88;;;28.40;64.90;;;;;;6204304;28;90100;-69
2021/06/24 08:52:55;;;;;;;51.60;34.28;;;28.50;65.00;;;;;;6207601;28;83763;-68
2021/06/24 08:55:56;;;;;;;46.35;33.75;;;28.50;64.80;;;;;;6208703;28;83665;-69
2021/06/24 08:58:56;;;;;;;45.40;31.90;;;28.50;64.90;;;;;;6210314;28;83500;-69
2021/06/24 09:01:57;;;;;;;46.35;32.80;;;28.40;64.90;;;;;;6204588;27;82858;-70
2021/06/24 09:04:58;;;;;;;43.42;32.42;;;28.50;64.90;;;;;;6210855;28;83899;-72
2021/06/24 09:07:58;;;;;;;49.42;32.60;;;28.50;64.70;;;;;;6207568;28;83433;-70
2021/06/24 09:10:59;;;;;;;54.35;36.33;;;28.50;64.60;;;;;;6208553;28;83652;-70
2021/06/24 09:13:59;;;;;;;52.30;34.17;;;28.50;64.50;;;;;;6206227;28;83474;-71
2021/06/24 09:17:00;;;;;;;47.95;34.15;;;28.50;64.40;;;;;;6209960;28;82913;-70
2021/06/24 09:20:00;;;;;;;53.92;36.20;;;28.50;64.50;;;;;;6207227;27;84365;-70
2021/06/24 09:23:01;;;;;;;56.08;35.65;;;28.50;64.60;;;;;;6206842;28;84239;-74
2021/06/24 09:26:01;;;;;;;59.42;40.13;;;28.50;65.50;;;;;;6206946;27;83103;-72
2021/06/24 09:29:02;;;;;;;69.88;43.88;;;28.50;66.60;;;;;;6209620;28;86338;-72
2021/06/24 09:32:03;;;;;;;69.57;44.88;;;28.50;68.30;;;;;;6204800;27;83485;-70
2021/06/24 09:35:04;;;;;;;72.35;49.22;;;28.50;68.40;;;;;;6201415;28;84305;-70
2021/06/24 09:38:06;;;;;;;75.15;49.00;;;28.50;69.80;;;;;;6209629;28;83209;-70
2021/06/24 09:41:06;;;;;;;71.75;47.72;;;28.60;69.30;;;;;;6205899;28;84034;-70
2021/06/24 09:44:07;;;;;;;68.05;48.15;;;28.60;70.80;;;;;;6207505;28;84303;-72
2021/06/24 09:47:07;;;;;;;71.07;43.95;;;28.70;69.60;;;;;;6209834;28;83478;-72
2021/06/24 09:50:08;;;;;;;65.15;41.58;;;28.60;69.00;;;;;;6206497;28;84124;-71
2021/06/24 09:53:08;;;;;;;62.63;40.25;;;28.70;68.60;;;;;;6208930;28;82921;-71
2021/06/24 09:56:09;;;;;;;59.58;40.42;;;28.60;68.50;;;;;;6207097;28;85110;-70
2021/06/24 09:59:10;;;;;;;61.15;40.47;;;28.60;68.00;;;;;;6205098;28;84084;-70
2021/06/24 10:02:11;;;;;;;59.58;38.10;;;28.60;67.70;;;;;;6206934;27;83093;-71
2021/06/24 10:05:11;;;;;;;53.03;35.88;;;28.60;68.20;;;;;;6212025;28;85739;-71
2021/06/24 10:08:12;;;;;;;58.88;36.63;;;28.60;68.20;;;;;;6208302;28;83411;-71
2021/06/24 10:11:12;;;;;;;47.15;35.42;;;28.60;68.10;;;;;;6212046;28;83030;-71
2021/06/24 10:14:15;;;;;;;48.58;35.97;;;28.60;68.10;;;;;;6208074;28;83934;-72
2021/06/24 10:17:16;;;;;;;54.65;34.67;;;28.70;68.20;;;;;;6207920;28;84124;-71
2021/06/24 10:20:16;;;;;;;51.50;35.50;;;28.60;68.50;;;;;;6206706;28;84378;-71
2021/06/24 10:23:17;;;;;;;44.65;33.15;;;28.70;68.40;;;;;;6197515;28;83123;-71
2021/06/24 10:26:17;;;;;;;49.67;33.95;;;28.70;68.50;;;;;;6210830;28;83965;-72
2021/06/24 10:29:18;;;;;;;48.92;33.50;;;28.60;68.50;;;;;;6204221;28;85616;-72
2021/06/24 10:32:18;;;;;;;46.00;32.63;;;28.70;68.80;;;;;;6206907;28;83844;-70
2021/06/24 10:35:19;;;;;;;43.60;31.67;;;28.80;69.80;;;;;;6206202;27;83435;-72
2021/06/24 10:38:19;;;;;;;44.42;32.33;;;28.80;68.90;;;;;;6208023;27;85727;-70
2021/06/24 10:41:20;;;;;;;40.40;31.70;;;28.80;68.60;;;;;;6205041;28;83589;-71
2021/06/24 10:44:20;;;;;;;47.65;31.83;;;28.80;67.90;;;;;;6206395;28;83237;-71
2021/06/24 10:47:21;;;;;;;44.42;32.28;;;28.80;67.90;;;;;;6206969;28;83706;-70
2021/06/24 10:50:21;;;;;;;44.78;31.63;;;28.70;68.00;;;;;;6208795;28;85431;-68
2021/06/24 10:53:22;;;;;;;50.42;34.20;;;28.70;68.20;;;;;;6206842;28;83287;-69
2021/06/24 10:56:23;;;;;;;58.70;38.15;;;28.80;68.30;;;;;;6202815;28;84250;-69
2021/06/24 10:59:23;;;;;;;75.82;44.15;;;28.80;68.00;;;;;;6208799;28;83956;-68
2021/06/24 11:02:24;;;;;;;56.20;37.38;;;28.70;68.10;;;;;;6203002;28;85951;-68
2021/06/24 11:05:24;;;;;;;58.17;36.25;;;28.80;67.80;;;;;;6196091;28;86443;-66
2021/06/24 11:08:25;;;;;;;48.30;32.85;;;28.80;67.90;;;;;;6203354;28;83210;-68
2021/06/24 11:11:25;;;;;;;46.67;31.95;;;28.80;67.60;;;;;;6202706;28;84067;-68
2021/06/24 11:14:26;;;;;;;47.40;31.75;;;28.80;67.90;;;;;;6204027;28;83276;-68
2021/06/24 11:17:26;;;;;;;46.53;32.13;;;28.90;67.80;;;;;;6200908;28;85828;-67
2021/06/24 11:20:29;;;;;;;46.67;31.27;;;28.80;67.90;;;;;;6204403;28;82893;-68
2021/06/24 11:23:30;;;;;;;46.05;31.17;;;28.80;68.00;;;;;;6203606;28;83082;-68
2021/06/24 11:26:30;;;;;;;43.38;31.92;;;28.90;68.10;;;;;;6200166;27;83142;-68
2021/06/24 11:29:39;;;;;;;43.80;31.20;;;28.80;68.30;;;;;;6203141;28;83205;-69
2021/06/24 11:32:44;;;;;;;42.92;31.92;;;28.90;69.00;;;;;;6199951;28;83256;-69
2021/06/24 11:36:08;;;;;;;46.30;31.90;;;28.90;68.50;;;;;;6201507;28;84219;-69
2021/06/24 11:39:09;;;;;;;45.50;30.48;;;28.90;68.80;;;;;;6202198;28;83630;-69
2021/06/24 11:42:09;;;;;;;43.65;32.00;;;28.90;68.80;;;;;;6195296;28;83301;-69
2021/06/24 11:45:10;;;;;;;42.97;30.08;;;28.90;69.20;;;;;;6202156;28;83670;-68
2021/06/24 11:48:14;;;;;;;40.97;30.05;;;28.90;69.00;;;;;;6203667;28;84116;-67
2021/06/24 12:04:06;;;;;;;41.90;28.95;;;28.90;68.00;;;;;;6205072;28;83211;-67
2021/06/24 12:07:08;;;;;;;35.00;26.67;;;29.00;68.00;;;;;;6203650;28;82809;-68
2021/06/24 12:10:10;;;;;;;46.45;27.17;;;29.00;67.50;;;;;;6206461;28;83226;-67
2021/06/24 12:13:11;;;;;;;42.08;27.52;;;29.00;67.30;;;;;;6204147;28;83321;-68
2021/06/24 12:16:11;;;;;;;34.42;27.45;;;29.00;67.10;;;;;;6203401;28;83069;-68
2021/06/24 12:19:12;;;;;;;38.80;27.02;;;29.00;67.30;;;;;;6203525;28;83796;-68
2021/06/24 12:22:15;;;;;;;37.42;27.27;;;29.00;67.60;;;;;;6202551;28;82999;-67
2021/06/24 12:25:16;;;;;;;37.42;28.00;;;29.00;67.50;;;;;;6204740;28;85586;-70
2021/06/24 12:28:16;;;;;;;40.47;27.35;;;29.00;67.60;;;;;;6198298;27;84321;-69
2021/06/24 12:31:17;;;;;;;38.33;27.33;;;29.00;67.90;;;;;;6204568;28;86001;-67
2021/06/24 12:34:17;;;;;;;43.55;29.35;;;29.00;67.80;;;;;;6216209;28;83144;-68
2021/06/24 12:37:18;;;;;;;44.38;29.02;;;29.00;67.70;;;;;;6208862;28;84246;-67
2021/06/24 12:40:18;;;;;;;38.05;29.08;;;29.00;67.80;;;;;;6208542;27;83282;-68
2021/06/24 12:43:19;;;;;;;39.72;27.45;;;29.00;67.80;;;;;;6207755;28;82973;-69
2021/06/24 12:46:19;;;;;;;41.10;28.48;;;29.00;67.60;;;;;;6206962;28;85906;-69
2021/06/24 12:49:20;;;;;;;44.97;28.85;;;29.00;67.50;;;;;;6204722;28;83224;-68
2021/06/24 12:52:21;;;;;;;40.50;27.33;;;29.00;67.10;;;;;;6206699;27;85212;-70
2021/06/24 12:55:21;;;;;;;39.80;26.35;;;29.00;67.20;;;;;;6207179;28;83697;-68
2021/06/24 12:58:22;;;;;;;42.80;27.48;;;29.10;67.20;;;;;;6205708;28;82997;-68
2021/06/24 13:01:22;;;;;;;42.83;26.63;;;29.10;67.50;;;;;;6206422;28;82995;-70
2021/06/24 13:04:24;;;;;;;42.25;27.00;;;29.10;68.10;;;;;;6210126;28;89676;-68
2021/06/24 13:07:27;;;;;;;34.10;24.95;;;29.10;67.90;;;;;;6207223;28;84341;-67
2021/06/24 13:10:27;;;;;;;37.97;25.65;;;29.10;67.10;;;;;;6205287;28;83799;-69
2021/06/24 13:13:28;;;;;;;41.55;25.38;;;29.10;67.30;;;;;;6208401;28;83020;-68
2021/06/24 13:16:28;;;;;;;42.13;24.23;;;29.10;67.30;;;;;;6205531;28;83258;-69
2021/06/24 13:19:30;;;;;;;37.88;24.05;;;29.10;66.60;;;;;;6206720;28;82986;-70
2021/06/24 13:22:34;;;;;;;34.67;24.55;;;29.10;66.50;;;;;;6203010;28;83710;-69
2021/06/24 13:25:41;;;;;;;34.92;23.10;;;29.10;66.80;;;;;;6195977;28;82723;-70
2021/06/24 13:28:41;;;;;;;44.83;24.75;;;29.10;66.50;;;;;;6204501;28;83169;-70
2021/06/24 13:31:45;;;;;;;44.58;25.15;;;29.10;66.70;;;;;;6207747;28;82822;-69
2021/06/24 13:34:46;;;;;;;39.17;23.85;;;29.10;66.70;;;;;;6201033;28;84035;-71
2021/06/24 13:37:46;;;;;;;35.53;23.33;;;29.10;67.30;;;;;;6209434;28;85593;-69
2021/06/24 13:40:47;;;;;;;33.03;23.23;;;29.10;67.10;;;;;;6207683;28;83236;-70
2021/06/24 13:43:48;;;;;;;34.83;24.58;;;29.10;67.10;;;;;;6206620;28;90435;-69
2021/06/24 13:46:48;;;;;;;42.80;23.98;;;29.10;66.40;;;;;;6204028;28;84167;-69
2021/06/24 13:49:49;;;;;;;38.17;22.92;;;29.20;65.90;;;;;;6209462;28;83178;-69
2021/06/24 13:52:49;;;;;;;35.78;22.60;;;29.20;65.50;;;;;;6206959;27;82984;-69
2021/06/24 13:55:50;;;;;;;31.65;24.23;;;29.20;66.50;;;;;;6206443;28;83144;-69
2021/06/24 13:58:50;;;;;;;40.38;22.45;;;29.20;66.00;;;;;;6207546;28;83370;-69
2021/06/24 14:01:51;;;;;;;37.05;22.20;;;29.20;65.80;;;;;;6200308;28;83341;-69
2021/06/24 14:04:51;;;;;;;32.13;21.58;;;29.10;65.00;;;;;;6201313;28;83712;-70
2021/06/24 14:07:52;;;;;;;34.47;20.10;;;29.10;64.30;;;;;;6202241;28;83071;-69
2021/06/24 14:10:52;;;;;;;29.48;18.15;;;29.10;62.80;;;;;;6204192;28;83093;-69
2021/06/24 14:13:53;;;;;;;29.40;18.08;;;29.20;62.00;;;;;;6204922;28;83033;-68
2021/06/24 14:16:53;;;;;;;30.35;17.92;;;29.20;61.30;;;;;;6204560;28;83235;-68
2021/06/24 14:19:54;;;;;;;25.73;16.02;;;29.20;60.90;;;;;;6207386;28;83796;-67
2021/06/24 14:22:55;;;;;;;24.50;16.40;;;29.20;61.30;;;;;;6205411;27;83390;-69
2021/06/24 14:25:55;;;;;;;27.92;15.98;;;29.20;60.70;;;;;;6199523;28;83541;-69
2021/06/24 14:28:55;;;;;;;30.63;16.60;;;29.20;60.40;;;;;;6199223;28;86005;-67
2021/06/24 14:31:56;;;;;;;28.33;15.18;;;29.20;60.10;;;;;;6200818;28;84094;-67
2021/06/24 14:34:57;;;;;;;29.73;16.67;;;29.20;60.00;;;;;;6204932;28;83256;-68
2021/06/24 14:37:57;;;;;;;27.60;16.15;;;29.20;59.80;;;;;;6204929;28;83616;-68
2021/06/24 14:40:58;;;;;;;29.02;16.55;;;29.20;59.70;;;;;;6212080;28;90397;-67
2021/06/24 14:43:58;;;;;;;30.35;15.48;;;29.20;59.90;;;;;;6205770;28;86165;-67
2021/06/24 14:46:59;;;;;;;27.75;17.10;;;29.20;59.90;;;;;;6201450;28;83226;-68
2021/06/24 14:50:00;;;;;;;31.63;16.38;;;29.20;61.00;;;;;;6204067;28;84148;-68
2021/06/24 14:53:00;;;;;;;28.17;17.02;;;29.20;61.20;;;;;;6205820;28;86359;-68
2021/06/24 14:56:01;;;;;;;25.67;15.75;;;29.20;60.80;;;;;;6206484;27;84156;-68
2021/06/24 14:59:04;;;;;;;26.70;16.27;;;29.20;61.00;;;;;;6203914;28;83122;-67
2021/06/24 15:02:05;;;;;;;29.27;16.33;;;29.20;61.30;;;;;;6207621;28;83390;-68
2021/06/24 15:05:05;;;;;;;31.02;15.75;;;29.10;61.10;;;;;;6200585;28;83290;-68
2021/06/24 15:08:06;;;;;;;26.88;15.45;;;29.10;61.50;;;;;;6207629;28;83203;-68
2021/06/24 15:11:06;;;;;;;33.00;17.27;;;29.10;61.10;;;;;;6207904;27;83536;-67
2021/06/24 15:14:07;;;;;;;35.72;17.27;;;29.10;61.90;;;;;;6204244;28;84260;-66
2021/06/24 15:17:07;;;;;;;34.15;17.17;;;29.10;62.00;;;;;;6205333;27;82977;-68
2021/06/24 15:20:10;;;;;;;30.27;16.77;;;29.10;61.70;;;;;;6203009;28;82913;-67
2021/06/24 15:23:13;;;;;;;36.17;17.90;;;29.10;61.80;;;;;;6202958;28;83687;-67
2021/06/24 15:26:13;;;;;;;31.33;14.93;;;29.10;62.00;;;;;;6206338;28;83087;-66
2021/06/24 15:29:14;;;;;;;27.00;14.00;;;29.00;62.30;;;;;;6212507;28;83134;-66
2021/06/24 15:32:14;;;;;;;25.58;13.00;;;29.00;62.20;;;;;;6202009;28;83465;-65
2021/06/24 15:35:16;;;;;;;29.30;13.52;;;29.00;62.50;;;;;;6195456;28;83777;-66